Time;durP1;ratioP1;P1;durP2;ratioP2;P2;SDS_P1;SDS_P2;PMS_P1;PMS_P2;Temp;Humidity;BMP_temperature;BMP_pressure;BME280_temperature;BME280_humidity;BME280_pressure;Samples;Min_cycle;Max_cycle;Signal;HPM_P1;HPM_P2
2022/07/10 00:00:11;;;;;;;0.90;0.73;;;20.90;99.90;;;21.46;52.68;102232.88;4870007;28;97558;-54
2022/07/10 00:02:41;;;;;;;3.67;1.83;;;21.00;99.90;;;21.44;48.22;102229.44;4866010;28;101933;-56
2022/07/10 00:05:10;;;;;;;3.83;1.43;;;21.00;98.30;;;21.34;49.05;102217.47;4867918;28;96890;-53
2022/07/10 00:07:36;;;;;;;1.87;1.07;;;20.90;97.50;;;21.34;50.84;102222.84;4870314;28;97194;-52
2022/07/10 00:10:04;;;;;;;1.80;0.90;;;20.80;98.80;;;21.30;53.08;102223.97;4870480;28;97862;-56
2022/07/10 00:12:30;;;;;;;2.33;0.93;;;20.70;99.90;;;21.32;52.71;102219.38;4867293;28;97527;-54
2022/07/10 00:14:56;;;;;;;0.80;0.80;;;20.80;99.90;;;21.30;53.18;102223.97;4870837;28;104446;-55
2022/07/10 00:17:22;;;;;;;0.83;0.80;;;20.70;99.90;;;21.30;53.25;102223.97;4866452;28;97546;-53
2022/07/10 00:19:47;;;;;;;1.00;0.73;;;20.80;99.90;;;21.31;53.42;102226.56;4866261;28;99274;-50
2022/07/10 00:22:13;;;;;;;1.87;0.70;;;20.80;99.90;;;21.37;53.23;102219.97;4866338;28;107527;-50
2022/07/10 00:24:39;;;;;;;2.80;0.97;;;20.90;99.90;;;21.44;53.05;102229.44;4871336;28;100902;-54
2022/07/10 00:27:05;;;;;;;2.00;1.00;;;21.00;99.90;;;21.49;52.33;102219.28;4871461;28;98497;-53
2022/07/10 00:29:31;;;;;;;4.07;1.50;;;21.00;99.90;;;21.50;52.20;102220.16;4869276;28;97673;-51
2022/07/10 00:31:57;;;;;;;3.27;1.03;;;21.00;98.80;;;21.50;52.40;102223.69;4871528;28;98111;-56
2022/07/10 00:34:23;;;;;;;1.13;0.80;;;21.00;99.60;;;21.47;52.12;102220.34;4869491;28;100642;-52
2022/07/10 00:36:49;;;;;;;1.43;0.77;;;20.90;99.20;;;21.42;52.61;102228.66;4869811;28;97564;-57
2022/07/10 00:39:14;;;;;;;0.70;0.70;;;20.90;99.90;;;21.37;52.75;102228.03;4868663;28;97456;-52
2022/07/10 00:41:40;;;;;;;2.30;1.00;;;20.80;99.90;;;21.37;52.53;102226.22;4868883;28;98665;-51
2022/07/10 00:44:06;;;;;;;1.47;0.90;;;20.80;99.70;;;21.36;52.78;102220.94;4857667;28;98839;-57
2022/07/10 00:46:32;;;;;;;2.23;1.10;;;20.80;99.50;;;21.34;52.86;102221.03;4868923;28;100363;-50
2022/07/10 00:48:58;;;;;;;1.20;0.90;;;20.80;99.90;;;21.35;52.99;102221.88;4871469;28;98531;-57
2022/07/10 00:51:27;;;;;;;3.70;1.87;;;20.80;99.90;;;21.32;48.71;102222.06;4866150;28;99815;-51
2022/07/10 00:53:53;;;;;;;3.60;1.17;;;20.80;98.10;;;21.27;52.37;102221.47;4867635;28;97365;-55
2022/07/10 00:56:25;;;;;;;1.70;0.70;;;20.60;99.40;;;21.25;53.46;102213.47;4865911;28;97766;-50
2022/07/10 00:58:51;;;;;;;1.10;0.70;;;20.60;99.90;;;21.25;53.43;102217.97;4869210;28;98414;-57
2022/07/10 01:01:18;;;;;;;2.50;1.07;;;20.70;99.90;;;21.23;52.66;102218.03;4864949;28;98362;-55
2022/07/10 01:03:46;;;;;;;1.70;1.00;;;20.60;99.50;;;21.19;52.93;102215.63;4847664;28;98846;-54
2022/07/10 01:06:13;;;;;;;0.97;0.80;;;20.60;99.90;;;21.21;53.37;102213.72;4865772;28;99207;-53
2022/07/10 01:08:39;;;;;;;5.57;1.40;;;20.60;99.90;;;21.20;47.47;102211.97;4864737;28;98068;-54
2022/07/10 01:11:06;;;;;;;0.70;0.70;;;20.70;98.70;;;21.26;53.56;102200.91;4865205;28;98489;-53
2022/07/10 01:13:32;;;;;;;3.00;1.00;;;20.70;99.90;;;21.23;52.75;102201.06;4845999;28;101742;-54
2022/07/10 01:15:58;;;;;;;2.47;0.93;;;20.70;99.90;;;21.19;52.97;102204.88;4864969;28;97350;-53
2022/07/10 01:18:25;;;;;;;1.37;0.73;;;20.60;99.90;;;21.18;53.50;102197.78;4860778;28;111537;-53
2022/07/10 01:20:56;;;;;;;3.30;1.40;;;20.60;99.90;;;21.18;53.23;102187.06;4849717;28;98186;-53
2022/07/10 01:23:22;;;;;;;4.20;0.93;;;20.60;99.90;;;21.12;53.38;102187.38;4847272;28;100315;-55
2022/07/10 01:25:49;;;;;;;4.27;1.70;;;20.50;99.60;;;21.09;53.40;102186.59;4867175;28;97220;-56
2022/07/10 01:28:20;;;;;;;2.93;1.10;;;20.40;99.90;;;21.06;53.45;102178.72;4858173;28;98782;-53
2022/07/10 01:30:49;;;;;;;1.10;0.70;;;20.40;99.50;;;21.06;54.01;102173.38;4869233;28;100428;-55
2022/07/10 01:33:15;;;;;;;0.77;0.67;;;20.40;99.90;;;21.09;54.04;102167.81;4866168;28;97637;-56
2022/07/10 01:35:42;;;;;;;3.03;1.20;;;20.50;99.90;;;21.12;52.85;102171.28;4869372;28;98789;-53
2022/07/10 01:38:08;;;;;;;5.17;1.70;;;20.50;99.60;;;21.12;52.42;102171.28;4864004;28;101428;-53
2022/07/10 01:40:34;;;;;;;0.70;0.60;;;20.50;99.50;;;21.11;53.69;102159.69;4867649;28;97500;-52
2022/07/10 01:42:59;;;;;;;1.60;0.80;;;20.50;99.90;;;21.09;53.47;102167.81;4868242;28;109090;-51
2022/07/10 01:45:25;;;;;;;1.67;0.87;;;20.40;99.90;;;21.08;53.95;102176.81;4848097;28;97040;-53
2022/07/10 01:47:51;;;;;;;1.40;0.80;;;20.40;99.90;;;21.10;53.88;102169.56;4868122;28;98347;-56
2022/07/10 01:50:17;;;;;;;1.33;0.90;;;20.50;99.90;;;21.16;53.57;102170.19;4830943;28;100233;-57
2022/07/10 01:52:43;;;;;;;1.83;0.80;;;20.60;99.90;;;21.20;53.01;102177.09;4861628;28;102712;-54
2022/07/10 01:55:09;;;;;;;1.20;0.60;;;20.60;99.90;;;21.17;53.50;102179.97;4885742;28;97264;-55
2022/07/10 01:57:35;;;;;;;1.40;0.97;;;20.50;99.90;;;21.19;53.82;102178.91;4885596;28;97012;-54
2022/07/10 02:00:02;;;;;;;1.23;0.60;;;20.60;99.90;;;21.24;53.67;102175.97;4883271;28;97540;-52
2022/07/10 02:02:28;;;;;;;1.40;0.80;;;20.70;99.90;;;21.28;53.26;102172.22;4891256;28;97324;-51
2022/07/10 02:04:54;;;;;;;1.27;0.80;;;20.80;99.90;;;21.30;53.17;102173.84;4888672;28;97331;-54
2022/07/10 02:07:22;;;;;;;1.03;0.60;;;20.80;99.90;;;21.27;52.94;102170.47;4884227;28;97567;-54
2022/07/10 02:09:48;;;;;;;2.93;1.30;;;20.70;99.90;;;21.27;51.65;102182.06;4887681;28;97020;-52
2022/07/10 02:12:15;;;;;;;0.67;0.50;;;20.70;99.20;;;21.28;53.25;102172.22;4896021;28;97256;-50
2022/07/10 02:14:41;;;;;;;1.10;0.70;;;20.70;99.90;;;21.28;53.44;102161.47;4892275;28;97252;-52
2022/07/10 02:17:08;;;;;;;0.80;0.70;;;20.70;99.90;;;21.31;53.32;102161.28;4891702;28;97290;-52
2022/07/10 02:19:35;;;;;;;1.67;0.63;;;20.80;99.90;;;21.36;53.17;102159.19;4883925;28;98665;-55
2022/07/10 02:22:00;;;;;;;3.03;1.20;;;20.90;99.90;;;21.31;51.43;102156.78;4894297;28;104294;-54
2022/07/10 02:24:27;;;;;;;2.07;0.70;;;20.80;98.60;;;21.26;52.95;102152.63;4885419;28;96995;-54
2022/07/10 02:26:54;;;;;;;1.50;0.63;;;20.60;99.90;;;21.27;53.33;102160.59;4895257;28;97724;-53
2022/07/10 02:29:21;;;;;;;2.57;1.13;;;20.70;99.90;;;21.29;52.64;102152.47;4885910;28;97393;-52
2022/07/10 02:31:47;;;;;;;2.33;1.03;;;20.70;99.90;;;21.27;52.62;102146.31;4894230;28;97619;-53
2022/07/10 02:34:15;;;;;;;3.93;1.40;;;20.70;99.50;;;21.20;52.79;102151.13;4891491;28;104342;-52
2022/07/10 02:36:41;;;;;;;1.10;0.70;;;20.60;99.80;;;21.20;53.15;102147.56;4883927;28;96843;-53
2022/07/10 02:39:08;;;;;;;0.90;0.60;;;20.50;99.90;;;21.16;53.31;102151.41;4883184;28;97748;-53
2022/07/10 02:41:35;;;;;;;1.13;0.60;;;20.50;99.90;;;21.13;53.33;102146.22;4898748;28;97112;-50
2022/07/10 02:44:02;;;;;;;0.40;0.40;;;20.50;99.90;;;21.16;53.62;102146.03;4893362;28;96601;-53
2022/07/10 02:46:28;;;;;;;1.57;0.60;;;20.50;99.90;;;21.21;53.49;102143.94;4872430;28;97156;-51
2022/07/10 02:48:54;;;;;;;1.03;0.60;;;20.70;99.90;;;21.23;53.05;102142.91;4895859;28;97381;-50
2022/07/10 02:51:20;;;;;;;2.00;1.30;;;20.70;99.90;;;21.21;52.59;102152.84;4900351;28;98660;-55
2022/07/10 02:53:45;;;;;;;2.00;0.90;;;20.60;99.90;;;21.16;52.50;102146.03;4894502;28;97129;-48
2022/07/10 02:56:11;;;;;;;3.13;0.80;;;20.50;99.90;;;21.09;53.37;102145.50;4894292;28;97198;-49
2022/07/10 02:58:39;;;;;;;1.10;0.60;;;20.40;99.90;;;21.09;53.69;102146.34;4890024;28;98863;-49
2022/07/10 03:01:05;;;;;;;0.80;0.47;;;20.40;99.90;;;21.14;53.54;102145.25;4906053;28;97025;-50
2022/07/10 03:03:31;;;;;;;1.43;0.70;;;20.50;99.90;;;21.19;53.35;102151.22;4892775;28;98612;-51
2022/07/10 03:05:58;;;;;;;1.53;0.90;;;20.60;99.90;;;21.23;53.15;102155.44;4893110;28;97388;-48
2022/07/10 03:08:24;;;;;;;1.87;0.70;;;20.70;99.90;;;21.24;53.33;102159.84;4894261;28;97316;-47
2022/07/10 03:10:50;;;;;;;0.90;0.60;;;20.70;99.90;;;21.24;53.22;102165.22;4896073;28;97569;-53
2022/07/10 03:13:16;;;;;;;1.17;0.70;;;20.70;99.90;;;21.22;53.35;102161.78;4894767;28;111796;-53
2022/07/10 03:15:41;;;;;;;1.43;0.70;;;20.60;99.90;;;21.21;53.34;102160.03;4892786;28;98410;-54
2022/07/10 03:18:07;;;;;;;2.47;0.90;;;20.60;99.90;;;21.17;53.61;102164.72;4894476;28;97338;-55
2022/07/10 03:20:33;;;;;;;1.80;1.00;;;20.50;99.90;;;21.16;53.46;102160.31;4894829;28;100400;-53
2022/07/10 03:22:59;;;;;;;2.97;1.17;;;20.50;99.90;;;21.14;53.33;102164.03;4893883;28;97482;-52
2022/07/10 03:25:25;;;;;;;1.40;0.70;;;20.50;99.90;;;21.17;53.60;102171.91;4889349;28;97149;-49
2022/07/10 03:27:51;;;;;;;0.90;0.53;;;20.50;99.90;;;21.21;53.58;102160.03;4897184;28;98407;-52
2022/07/10 03:30:17;;;;;;;0.87;0.57;;;20.60;99.90;;;21.23;53.60;102169.72;4892604;28;96896;-53
2022/07/10 03:32:43;;;;;;;0.50;0.50;;;20.70;99.90;;;21.25;53.34;102167.00;4892563;28;97414;-49
2022/07/10 03:35:08;;;;;;;2.13;0.93;;;20.70;99.90;;;21.25;53.03;102161.63;4882717;28;97400;-50
2022/07/10 03:37:34;;;;;;;1.07;0.70;;;20.70;99.90;;;21.26;53.60;102163.34;4899119;28;97915;-52
2022/07/10 03:40:00;;;;;;;0.87;0.50;;;20.70;99.90;;;21.29;53.32;102163.19;4889841;28;97499;-51
2022/07/10 03:42:26;;;;;;;0.93;0.50;;;20.70;99.90;;;21.32;52.98;102160.34;4887635;28;97368;-53
2022/07/10 03:44:51;;;;;;;2.00;0.60;;;20.80;99.90;;;21.30;53.14;102164.94;4893138;28;97201;-53
2022/07/10 03:47:17;;;;;;;0.80;0.67;;;20.80;99.90;;;21.32;53.26;102158.50;4889571;28;108118;-53
2022/07/10 03:49:43;;;;;;;1.03;0.60;;;20.80;99.90;;;21.33;53.28;102162.06;4894521;28;97486;-51
2022/07/10 03:52:09;;;;;;;0.50;0.50;;;20.80;99.90;;;21.36;53.03;102162.75;4884060;28;97736;-49
2022/07/10 03:54:35;;;;;;;0.70;0.70;;;20.90;99.90;;;21.38;53.00;102162.66;4889872;28;96920;-54
2022/07/10 03:59:46;;;;;;;0.60;0.43;;;20.90;99.90;;;21.45;52.97;102158.69;4891834;28;102156;-56
2022/07/10 04:02:11;;;;;;;0.83;0.60;;;21.00;99.90;;;21.47;52.92;102151.41;4887638;28;97230;-55
2022/07/10 04:04:37;;;;;;;1.40;0.53;;;21.00;99.90;;;21.49;52.83;102154.84;4888285;28;96656;-50
2022/07/10 04:07:04;;;;;;;0.50;0.37;;;21.00;99.90;;;21.51;52.63;102152.94;4886170;28;98641;-50
2022/07/10 04:09:30;;;;;;;2.13;0.87;;;21.10;99.90;;;21.50;52.52;102145.84;4883484;28;97403;-52
2022/07/10 04:11:56;;;;;;;0.80;0.53;;;21.00;99.90;;;21.45;52.84;102147.94;4870388;28;97801;-53
2022/07/10 04:14:22;;;;;;;1.03;0.40;;;20.90;99.90;;;21.44;52.95;102151.59;4891492;28;97661;-51
2022/07/10 04:16:48;;;;;;;0.87;0.47;;;20.90;99.90;;;21.48;52.84;102153.13;4879092;28;97752;-53
2022/07/10 04:19:15;;;;;;;0.90;0.80;;;21.00;99.90;;;21.50;52.78;102153.91;4883210;28;97465;-53
2022/07/10 04:21:40;;;;;;;0.50;0.50;;;21.00;99.90;;;21.51;52.50;102152.94;4892798;28;97265;-55
2022/07/10 04:24:06;;;;;;;0.97;0.70;;;21.10;99.90;;;21.46;52.67;102155.03;4886876;28;97401;-59
2022/07/10 04:26:33;;;;;;;1.23;0.63;;;21.00;99.90;;;21.42;52.58;102147.25;4893695;28;97032;-55
2022/07/10 04:28:58;;;;;;;1.23;0.80;;;20.90;99.90;;;21.42;52.67;102158.88;4894125;28;97517;-55
2022/07/10 04:31:24;;;;;;;1.43;0.57;;;20.90;99.90;;;21.42;52.88;102153.50;4889994;28;97480;-49
2022/07/10 04:33:50;;;;;;;1.87;0.90;;;20.90;99.90;;;21.44;52.33;102166.81;4886385;28;97371;-50
2022/07/10 04:36:16;;;;;;;1.87;0.60;;;20.90;99.90;;;21.41;52.65;102159.81;4884355;28;97616;-52
2022/07/10 04:38:42;;;;;;;1.67;0.93;;;20.90;99.90;;;21.42;52.82;102158.88;4893536;28;97607;-56
2022/07/10 04:41:07;;;;;;;1.37;0.60;;;20.90;99.90;;;21.43;52.65;102163.28;4889738;28;108831;-47
2022/07/10 04:43:33;;;;;;;4.60;1.00;;;21.00;99.90;;;21.44;52.15;102161.47;4903169;28;96791;-47
2022/07/10 04:45:59;;;;;;;2.37;1.10;;;20.90;99.90;;;21.42;52.60;102163.38;4904921;28;97439;-51
2022/07/10 04:48:25;;;;;;;1.43;0.80;;;20.90;99.90;;;21.47;52.89;102167.50;4890010;28;97200;-50
2022/07/10 04:50:51;;;;;;;3.90;0.90;;;21.00;99.90;;;21.51;52.88;102169.06;4895834;28;97090;-52
2022/07/10 04:53:16;;;;;;;2.17;0.90;;;21.10;99.90;;;21.56;52.68;102167.00;4890552;28;96962;-54
2022/07/10 04:55:42;;;;;;;1.23;0.60;;;21.30;99.90;;;21.59;52.58;102171.31;4895893;28;97408;-52
2022/07/10 04:58:08;;;;;;;4.30;1.37;;;21.30;99.90;;;21.56;52.35;102161.63;4888093;28;97088;-51
2022/07/10 05:00:34;;;;;;;2.63;0.97;;;21.20;99.90;;;21.59;52.64;102165.94;4894220;28;97374;-56
2022/07/10 05:02:59;;;;;;;2.37;0.90;;;21.20;99.90;;;21.62;52.55;102166.63;4896934;28;97136;-52
2022/07/10 05:05:25;;;;;;;7.13;1.30;;;21.30;99.90;;;21.63;52.17;102168.34;4889459;28;100200;-52
2022/07/10 05:07:51;;;;;;;4.60;1.63;;;21.30;99.90;;;21.62;50.78;102165.75;4887711;28;97696;-51
2022/07/10 05:10:17;;;;;;;6.60;1.60;;;21.30;99.60;;;21.63;52.27;102162.97;4892664;28;97398;-52
2022/07/10 05:12:42;;;;;;;4.53;1.53;;;21.30;99.90;;;21.61;51.65;102162.19;4895246;28;97565;-53
2022/07/10 05:15:09;;;;;;;4.90;1.70;;;21.30;99.90;;;21.59;52.05;102169.47;4889821;28;98662;-52
2022/07/10 05:17:35;;;;;;;4.67;1.50;;;21.30;99.90;;;21.60;51.93;102171.22;4894286;28;98548;-54
2022/07/10 05:20:00;;;;;;;5.70;1.60;;;21.30;99.90;;;21.61;52.22;102175.63;4894157;28;97406;-54
2022/07/10 05:22:26;;;;;;;5.00;2.27;;;21.30;99.90;;;21.52;51.95;102175.28;4891609;28;106993;-53
2022/07/10 05:24:52;;;;;;;6.23;1.83;;;21.10;99.90;;;21.51;50.04;102174.41;4893115;28;97596;-53
2022/07/10 05:27:19;;;;;;;6.30;1.93;;;21.20;99.60;;;21.52;51.54;102183.34;4893197;28;98223;-50
2022/07/10 05:29:46;;;;;;;5.97;2.03;;;21.20;99.90;;;21.53;52.15;102177.88;4893395;28;97085;-52
2022/07/10 05:32:12;;;;;;;4.73;1.53;;;21.30;99.90;;;21.55;52.12;102181.34;4886580;28;98629;-50
2022/07/10 05:34:38;;;;;;;4.53;1.87;;;21.30;99.90;;;21.55;52.17;102184.03;4894777;28;97709;-53
2022/07/10 05:37:05;;;;;;;5.20;2.53;;;21.30;99.90;;;21.56;51.96;102183.09;4907338;28;97653;-52
2022/07/10 05:39:31;;;;;;;6.87;1.80;;;21.30;99.90;;;21.50;50.38;102183.44;4890321;28;97277;-56
2022/07/10 05:41:57;;;;;;;4.70;2.20;;;21.20;99.80;;;21.50;51.63;102183.44;4894393;28;97084;-54
2022/07/10 05:44:24;;;;;;;4.43;2.30;;;21.10;99.90;;;21.39;52.03;102181.34;4890667;28;98829;-54
2022/07/10 05:46:49;;;;;;;6.63;2.63;;;20.90;99.90;;;21.35;47.85;102179.81;4891746;28;96897;-54
2022/07/10 05:49:15;;;;;;;5.30;1.70;;;21.00;99.60;;;21.42;52.47;102191.06;4891262;28;100318;-50
2022/07/10 05:51:42;;;;;;;3.20;1.77;;;21.00;99.90;;;21.39;52.25;102191.22;4891749;28;102996;-53
2022/07/10 05:54:08;;;;;;;5.57;2.37;;;21.00;99.90;;;21.25;52.25;102191.13;4885428;28;100291;-53
2022/07/10 05:56:34;;;;;;;5.33;2.30;;;20.80;99.90;;;21.32;52.64;102188.03;4892979;28;97407;-55
2022/07/10 05:59:00;;;;;;;2.70;1.30;;;21.00;99.90;;;21.37;52.73;102187.78;4891896;28;97167;-52
2022/07/10 06:01:26;;;;;;;8.20;2.10;;;21.00;99.90;;;21.26;50.54;102184.81;4890286;28;98371;-56
2022/07/10 06:03:52;;;;;;;3.20;1.37;;;20.90;99.90;;;21.29;52.58;102185.53;4899235;28;99019;-53
2022/07/10 06:06:18;;;;;;;1.77;1.00;;;20.90;99.90;;;21.41;52.30;102183.97;4889734;28;97081;-52
2022/07/10 06:08:44;;;;;;;2.40;0.83;;;21.10;99.90;;;21.47;52.34;102186.31;4894536;28;97517;-52
2022/07/10 06:11:11;;;;;;;4.00;1.20;;;21.20;99.90;;;21.50;51.65;102186.13;4891626;28;97254;-51
2022/07/10 06:13:37;;;;;;;4.10;1.30;;;21.20;99.90;;;21.49;51.28;102175.47;4893410;28;97716;-53
2022/07/10 06:16:04;;;;;;;3.20;1.10;;;21.20;99.90;;;21.53;48.83;102171.66;4890999;28;97368;-54
2022/07/10 06:18:31;;;;;;;3.23;1.10;;;21.30;99.20;;;21.56;50.52;102176.88;4887491;28;96925;-50
2022/07/10 06:20:57;;;;;;;5.37;1.20;;;21.30;98.60;;;21.60;47.69;102178.41;4891841;28;98628;-48
2022/07/10 06:23:23;;;;;;;5.40;1.33;;;21.40;98.90;;;21.64;50.20;102180.81;4889092;28;97677;-50
2022/07/10 06:25:52;;;;;;;4.37;1.67;;;21.40;99.50;;;21.57;50.30;102174.09;4893143;28;96981;-53
2022/07/10 06:28:18;;;;;;;5.20;1.73;;;21.30;99.60;;;21.55;48.63;102181.34;4899768;28;97383;-49
2022/07/10 06:30:48;;;;;;;2.53;1.30;;;21.20;99.90;;;21.57;51.92;102183.97;4901124;28;96677;-50
2022/07/10 06:33:14;;;;;;;6.77;1.93;;;21.20;99.90;;;21.52;46.27;102181.53;4901166;28;97520;-52
2022/07/10 06:35:39;;;;;;;1.90;0.80;;;21.20;97.30;;;21.55;51.61;102184.03;4899169;28;106838;-54
2022/07/10 06:38:05;;;;;;;7.13;1.87;;;21.20;99.90;;;21.61;50.11;102181.00;4892401;28;103044;-46
2022/07/10 06:40:36;;;;;;;2.33;0.97;;;21.30;98.90;;;21.59;51.34;102187.41;4894180;28;97351;-52
2022/07/10 06:43:02;;;;;;;7.13;2.13;;;21.20;99.90;;;21.55;50.09;102191.22;4909261;28;97540;-51
2022/07/10 06:45:28;;;;;;;5.73;1.90;;;21.20;99.40;;;21.37;46.22;102187.78;4897858;28;96720;-49
2022/07/10 06:47:58;;;;;;;2.43;1.13;;;21.00;98.30;;;21.22;48.34;102196.66;4898545;28;111852;-48
2022/07/10 06:50:31;;;;;;;8.53;2.10;;;20.80;99.10;;;21.05;44.81;102189.56;4898453;28;97256;-53
2022/07/10 06:52:58;;;;;;;4.77;1.47;;;20.60;97.40;;;21.10;52.03;102196.38;4891832;28;97389;-54
2022/07/10 06:55:26;;;;;;;8.90;2.23;;;20.60;99.90;;;21.15;46.25;102189.91;4905117;28;97232;-51
2022/07/10 06:57:52;;;;;;;4.27;1.77;;;20.70;98.40;;;21.19;50.51;102183.41;4896016;28;97344;-52
2022/07/10 07:00:19;;;;;;;5.70;1.67;;;20.80;99.60;;;21.19;47.10;102188.78;4891315;28;97737;-53
2022/07/10 07:02:45;;;;;;;7.10;2.37;;;20.90;99.10;;;21.15;45.40;102182.72;4890422;28;97196;-48
2022/07/10 07:05:12;;;;;;;8.73;2.17;;;20.80;97.70;;;21.06;45.43;102184.09;4907708;28;98499;-50
2022/07/10 07:07:38;;;;;;;2.50;1.07;;;20.70;97.60;;;21.22;52.04;102193.97;4901351;28;97157;-53
2022/07/10 07:10:05;;;;;;;2.77;1.37;;;20.80;99.90;;;21.29;52.29;102182.84;4900331;28;97280;-52
2022/07/10 07:12:31;;;;;;;2.53;0.83;;;21.00;99.90;;;21.39;52.08;102180.50;4898648;28;97226;-50
2022/07/10 07:14:57;;;;;;;2.73;0.90;;;21.10;99.90;;;21.50;51.38;102183.44;4891370;28;98865;-53
2022/07/10 07:17:25;;;;;;;9.03;2.60;;;21.30;99.90;;;21.52;47.41;102181.53;4895608;28;109932;-51
2022/07/10 07:25:21;;;;;;;6.83;2.50;;;21.20;99.90;;;21.46;45.21;102189.06;4896400;28;98028;-52
2022/07/10 07:27:47;;;;;;;5.13;2.10;;;21.10;97.30;;;21.45;45.69;102190.91;4896576;28;97199;-54
2022/07/10 07:30:15;;;;;;;1.87;1.00;;;21.10;98.00;;;21.46;51.43;102195.31;4890274;28;97257;-50
2022/07/10 07:32:42;;;;;;;2.23;1.10;;;21.10;99.90;;;21.50;46.62;102198.66;4895082;28;97128;-49
2022/07/10 07:35:12;;;;;;;1.97;1.17;;;21.20;98.60;;;21.49;51.50;102192.44;4895280;28;97499;-50
2022/07/10 07:37:46;;;;;;;5.03;1.50;;;21.20;99.90;;;21.50;46.50;102199.53;4897624;28;97441;-54
2022/07/10 07:40:15;;;;;;;2.57;1.00;;;21.20;98.20;;;21.53;51.53;102191.31;4892373;28;99098;-54
2022/07/10 07:42:41;;;;;;;2.10;0.80;;;21.20;99.90;;;21.55;51.16;102200.13;4896253;28;99178;-52
2022/07/10 07:45:08;;;;;;;5.63;1.80;;;21.20;99.90;;;21.53;45.20;102204.72;4886978;28;98488;-57
2022/07/10 07:47:50;;;;;;;4.20;1.50;;;21.30;97.60;;;21.59;49.77;102193.66;4892929;28;97288;-53
2022/07/10 07:50:21;;;;;;;4.13;1.33;;;21.30;98.90;;;21.54;47.29;102190.34;4889208;28;97039;-54
2022/07/10 07:52:48;;;;;;;2.77;1.07;;;21.20;98.30;;;21.50;46.28;102191.47;4890753;28;98960;-50
2022/07/10 07:55:16;;;;;;;3.17;1.10;;;21.20;97.50;;;21.54;51.18;102201.09;4903487;28;97303;-49
2022/07/10 07:57:42;;;;;;;4.27;1.43;;;21.30;99.90;;;21.53;50.50;102199.34;4901885;28;98310;-52
2022/07/10 08:00:12;;;;;;;4.27;1.63;;;21.20;98.90;;;21.46;47.55;102208.72;4895476;28;97561;-50
2022/07/10 08:02:38;;;;;;;4.60;2.17;;;21.10;98.20;;;21.35;48.25;102197.72;4893282;28;97358;-50
2022/07/10 08:05:06;;;;;;;3.27;1.53;;;21.00;98.10;;;21.37;51.40;102206.56;4896808;28;97628;-52
2022/07/10 08:07:43;;;;;;;6.07;1.93;;;21.00;99.90;;;21.38;51.36;102200.22;4890477;28;97424;-52
2022/07/10 08:10:14;;;;;;;3.30;1.90;;;20.90;99.90;;;21.46;51.84;102203.38;4890124;28;97630;-51
2022/07/10 08:12:41;;;;;;;6.80;2.10;;;21.10;99.90;;;21.44;45.88;102199.91;4894910;28;97627;-52
2022/07/10 08:15:09;;;;;;;3.63;1.60;;;21.10;98.20;;;21.39;49.95;102192.09;4892034;28;96884;-59
2022/07/10 08:17:35;;;;;;;5.97;2.50;;;21.00;99.40;;;21.31;48.51;102193.50;4900726;28;96677;-48
2022/07/10 08:20:05;;;;;;;3.67;1.60;;;20.90;98.50;;;21.39;51.13;102196.59;4904009;28;96888;-49
2022/07/10 08:22:32;;;;;;;5.70;2.23;;;21.10;99.90;;;21.37;46.85;102193.13;4899366;28;97772;-48
2022/07/10 08:24:58;;;;;;;7.63;2.40;;;21.10;98.20;;;21.45;51.26;102193.56;4905233;28;97276;-48
2022/07/10 08:27:24;;;;;;;5.73;2.63;;;21.20;99.90;;;21.49;50.86;102197.81;4903512;28;97007;-52
2022/07/10 08:29:50;;;;;;;4.53;2.10;;;21.20;99.90;;;21.49;51.32;102197.81;4905894;28;97007;-47
2022/07/10 08:32:17;;;;;;;9.00;2.37;;;21.30;99.90;;;21.55;51.19;102201.94;4892542;28;98584;-50
2022/07/10 08:34:43;;;;;;;5.20;2.63;;;21.30;99.90;;;21.60;51.08;102206.13;4887132;28;96802;-54
2022/07/10 08:37:08;;;;;;;4.73;2.30;;;21.40;99.90;;;21.56;50.75;102204.56;4882808;28;96987;-48
2022/07/10 08:39:34;;;;;;;6.97;2.60;;;21.30;99.90;;;21.57;51.03;102206.31;4869093;28;98115;-52
2022/07/10 08:42:01;;;;;;;7.33;3.37;;;21.30;99.90;;;21.45;47.30;102200.78;4885270;28;99745;-50
2022/07/10 08:44:28;;;;;;;4.60;2.50;;;21.10;98.60;;;21.34;49.83;102204.91;4852787;28;99378;-49
2022/07/10 08:46:54;;;;;;;8.20;2.80;;;21.00;99.90;;;21.31;47.17;102212.28;4871208;28;97760;-52
2022/07/10 08:49:27;;;;;;;5.57;2.57;;;21.00;98.80;;;21.29;51.30;102200.78;4866336;28;97627;-51
2022/07/10 08:52:09;;;;;;;4.33;2.63;;;20.80;99.90;;;21.27;47.85;102197.31;4873730;28;97367;-49
2022/07/10 08:54:37;;;;;;;7.40;2.80;;;21.00;99.90;;;21.28;51.45;102193.69;4867526;28;101159;-48
2022/07/10 08:57:03;;;;;;;7.07;3.47;;;21.00;99.90;;;21.33;51.61;102199.63;4872764;28;99443;-54
2022/07/10 08:59:30;;;;;;;6.07;2.13;;;21.10;99.90;;;21.38;51.76;102195.72;4868579;28;98118;-52
2022/07/10 09:01:56;;;;;;;2.33;1.73;;;21.20;99.90;;;21.50;51.30;102188.81;4869883;28;97564;-51
2022/07/10 09:04:25;;;;;;;6.33;3.60;;;21.30;99.90;;;21.51;47.83;102182.47;4862744;28;98677;-51
2022/07/10 09:06:53;;;;;;;2.70;1.60;;;21.40;99.10;;;21.59;51.24;102193.66;4883851;28;99060;-52
2022/07/10 09:09:19;;;;;;;6.27;2.80;;;21.40;99.90;;;21.57;48.19;102192.88;4880863;28;100943;-50
2022/07/10 09:11:46;;;;;;;4.23;1.80;;;21.40;99.60;;;21.62;51.00;102185.41;4869276;28;98722;-53
2022/07/10 09:14:15;;;;;;;5.70;3.37;;;21.40;99.90;;;21.65;49.31;102187.06;4863097;28;98786;-49
2022/07/10 09:16:45;;;;;;;4.03;3.07;;;21.50;99.60;;;21.66;49.43;102183.41;4866635;28;97417;-50
2022/07/10 09:19:22;;;;;;;4.50;3.23;;;21.40;99.90;;;21.61;51.01;102181.00;4862695;28;97833;-52
2022/07/10 09:22:10;;;;;;;6.43;3.70;;;21.40;99.90;;;21.60;50.85;102176.59;4867134;28;98288;-47
2022/07/10 09:24:46;;;;;;;6.13;4.47;;;21.40;99.90;;;21.55;48.01;102175.97;4864784;28;101145;-50
2022/07/10 09:27:15;;;;;;;7.53;3.83;;;21.30;99.40;;;21.50;48.53;102186.13;4865067;28;97617;-52
2022/07/10 09:29:54;;;;;;;6.87;4.20;;;21.20;99.70;;;21.49;50.52;102176.34;4870210;28;99980;-47
2022/07/10 09:32:21;;;;;;;6.93;3.20;;;21.10;99.90;;;21.49;51.10;102181.69;4865716;28;97238;-54
2022/07/10 09:36:04;;;;;;;5.20;4.70;;;21.20;99.90;;;21.50;49.41;102188.81;4866424;28;97395;-51
2022/07/10 09:37:43;;;;;;;5.27;3.13;;;21.20;99.90;;;21.47;50.95;102180.06;4863292;28;97872;-51
2022/07/10 09:40:10;;;;;;;5.47;2.83;;;21.10;99.90;;;21.44;51.56;102181.13;4864512;28;97837;-50
2022/07/10 09:42:39;;;;;;;5.97;4.50;;;21.10;99.90;;;21.49;48.93;102181.69;4867281;28;99592;-51
2022/07/10 09:48:00;;;;;;;4.57;3.47;;;21.10;99.70;;;21.26;49.42;102174.94;4868538;28;99194;-53
2022/07/10 09:50:33;;;;;;;6.27;3.37;;;20.80;99.90;;;21.23;50.30;102176.91;4866006;28;97667;-53
2022/07/10 09:53:05;;;;;;;5.30;2.67;;;20.80;99.90;;;21.29;50.48;102179.31;4872900;28;100643;-52
2022/07/10 09:55:34;;;;;;;4.30;2.43;;;20.90;99.90;;;21.40;52.07;102168.78;4865729;28;101116;-52
2022/07/10 09:58:06;;;;;;;5.93;2.40;;;21.20;99.90;;;21.38;51.42;102173.38;4875132;28;99363;-47
2022/07/10 10:00:42;;;;;;;3.13;2.50;;;21.10;99.90;;;21.48;48.77;102174.59;4866771;28;101680;-53
2022/07/10 10:03:11;;;;;;;5.93;3.00;;;21.20;99.90;;;21.38;51.07;102173.38;4863625;28;97799;-52
2022/07/10 10:05:55;;;;;;;4.67;3.00;;;21.10;99.90;;;21.47;51.34;102180.94;4870937;28;99763;-51
2022/07/10 10:08:58;;;;;;;4.57;3.80;;;21.10;99.90;;;21.44;50.79;102175.75;4867814;28;98524;-52
2022/07/10 10:11:27;;;;;;;7.97;3.97;;;21.10;99.90;;;21.43;50.40;102181.22;4865352;28;97586;-53
2022/07/10 10:13:53;;;;;;;8.23;4.97;;;21.20;99.90;;;21.37;50.93;102177.03;4868665;28;97147;-51
2022/07/10 10:16:22;;;;;;;5.50;4.30;;;21.00;99.90;;;21.35;51.43;102178.94;4868259;28;97605;-51
2022/07/10 10:21:36;;;;;;;4.37;3.97;;;21.00;99.90;;;21.30;51.73;102170.28;4867391;28;97168;-48
2022/07/10 10:24:02;;;;;;;5.23;3.13;;;21.00;99.90;;;21.35;51.56;102168.19;4871194;28;97449;-47
2022/07/10 10:26:29;;;;;;;5.60;3.00;;;21.10;99.90;;;21.39;51.91;102167.94;4867090;28;99973;-49